Terminal Aerodrome Forecast
Issued by NWS

Home | Current Version | Previous Version | Graphics & Text | Print | Product List | Glossary On
Versions: 1 2 3 4 5 6 7 8 9 10 11 12 13 14
412
FTUS43 KABR 171739 AAB
TAFPIR
TAF AMD
KPIR 171739Z 1718/1818 34011KT P6SM OVC070
     FM172200 36008KT P6SM VCSH OVC050
     FM180200 34006KT P6SM OVC035
     FM181200 30014KT P6SM SCT250=

USA.gov is the U.S. government's official web portal to all federal, state and local government web resources and services.